This is the latest recevied weather packets stored in our database for station/object F4JFI-13. If no packets are shown the sender has not sent any weather packets the latest 1 day(s).
| Time | Temp. | Humidity | Pressure | Rain* | Wind** | Luminosity | Snow |
|---|---|---|---|---|---|---|---|
| 1778094128 | 13.33° C | 92% | 1009.2 hPa | 1.02 mm | - | - | - |
| 1778093528 | 13.33° C | 92% | 1009.2 hPa | - | - | - | - |
| 1778092928 | 13.33° C | 92% | 1009 hPa | - | - | - | - |
| 1778085128 | 15.56° C | 86% | 1008.2 hPa | - | - | - | - |
| 1778084528 | 15.56° C | 86% | 1008.2 hPa | - | - | - | - |
| 1778080939 | 13.33° C | 90% | 1008.2 hPa | - | - | - | - |
| 1778079728 | 13.33° C | 88% | 1008.2 hPa | - | - | - | - |
| 1778078528 | 15.56° C | 82% | 1008 hPa | - | - | - | - |
| 1778077328 | 15.56° C | 84% | 1007.8 hPa | - | - | - | - |
| 1778076728 | 15.56° C | 86% | 1007.8 hPa | - | - | - | - |
| 1778076128 | 14.44° C | 86% | 1008 hPa | 0.51 mm | - | - | - |
| 1778073728 | 14.44° C | 88% | 1008 hPa | - | - | - | - |
| 1778073128 | 14.44° C | 88% | 1008 hPa | - | - | - | - |
| 1778072528 | 13.33° C | 88% | 1008 hPa | 0 mm | - | - | - |
| 1778069528 | 15.56° C | 80% | 1007.8 hPa | - | - | - | - |
| 1778068328 | 15.56° C | 82% | 1007.8 hPa | - | - | - | - |
| 1778064728 | 14.44° C | 86% | 1008.2 hPa | - | - | - | - |
| 1778064128 | 14.44° C | 84% | 1008.2 hPa | - | - | - | - |
| 1778063528 | 14.44° C | 86% | 1008.2 hPa | - | - | - | - |
| 1778062937 | 13.33° C | 86% | 1008.4 hPa | - | - | - | - |
| 1778062328 | 14.44° C | 84% | 1008.4 hPa | - | - | - | - |
| 1778061728 | 14.44° C | 84% | 1008.4 hPa | 0 mm | - | - | - |
| 1778061128 | 13.33° C | 84% | 1008.4 hPa | - | - | - | - |
| 1778060533 | 13.33° C | 84% | 1008.4 hPa | - | - | - | - |
| 1778057528 | 13.33° C | 86% | 1008.2 hPa | - | - | - | - |
* Rain latest hour (hover to see other rain measurements)
** Current wind speed in m/s (hover to see current wind gust speed)